createdAt,value
2019-05-03T00:00:12.067Z,76.80
2019-05-03T00:02:52.227Z,76.80
2019-05-03T00:05:41.784Z,76.90
2019-05-03T00:08:12.600Z,76.90
2019-05-03T00:10:42.552Z,77.00
2019-05-03T00:13:12.463Z,77.00
2019-05-03T00:16:02.590Z,77.10
2019-05-03T00:18:32.757Z,77.10
2019-05-03T00:21:02.193Z,77.10
2019-05-03T00:23:32.436Z,77.10
2019-05-03T00:26:02.621Z,77.10
2019-05-03T00:28:32.205Z,77.20
2019-05-03T00:31:01.989Z,77.20
2019-05-03T00:33:31.759Z,77.30
2019-05-03T00:36:17.526Z,77.30
2019-05-03T00:38:46.788Z,77.30
2019-05-03T00:41:15.803Z,77.30
2019-05-03T00:43:44.862Z,77.30
2019-05-03T00:46:16.791Z,77.50
2019-05-03T00:48:45.887Z,77.30
2019-05-03T00:51:14.933Z,77.30
2019-05-03T00:53:44.004Z,77.30
2019-05-03T00:56:13.079Z,77.40
2019-05-03T00:58:57.749Z,77.40
2019-05-03T01:01:26.966Z,77.40
2019-05-03T01:03:55.990Z,77.40
2019-05-03T01:06:25.060Z,77.40
2019-05-03T01:08:54.123Z,77.50
2019-05-03T01:11:23.185Z,77.50
2019-05-03T01:13:52.449Z,77.60
2019-05-03T01:16:22.772Z,77.60
2019-05-03T01:18:52.346Z,77.60
2019-05-03T01:21:22.522Z,77.60
2019-05-03T01:23:52.571Z,77.60
2019-05-03T01:26:23.217Z,77.50
2019-05-03T01:28:52.577Z,77.40
2019-05-03T01:31:22.713Z,77.50
2019-05-03T01:34:12.527Z,77.50
2019-05-03T01:36:42.679Z,77.50
2019-05-03T01:39:12.741Z,77.50
2019-05-03T01:41:41.947Z,77.40
2019-05-03T01:44:12.496Z,77.40
2019-05-03T01:46:42.202Z,77.50
2019-05-03T01:49:22.748Z,77.50
2019-05-03T01:52:02.226Z,77.40
2019-05-03T01:54:32.138Z,77.40
2019-05-03T01:57:02.406Z,77.30
2019-05-03T01:59:32.147Z,77.40
2019-05-03T02:02:20.331Z,77.30
2019-05-03T02:05:07.128Z,77.30
2019-05-03T02:07:36.303Z,77.30
2019-05-03T02:10:05.510Z,77.20
2019-05-03T02:12:34.543Z,77.30
2019-05-03T02:15:04.252Z,77.30
2019-05-03T02:17:33.311Z,77.40
2019-05-03T02:20:02.399Z,77.40
2019-05-03T02:22:31.936Z,77.40
2019-05-03T02:25:03.092Z,77.40
2019-05-03T02:27:32.608Z,77.40
2019-05-03T02:30:03.122Z,77.30
2019-05-03T02:32:33.226Z,77.40
2019-05-03T02:35:02.858Z,77.40
2019-05-03T02:37:33.112Z,78.20
2019-05-03T02:40:04.195Z,77.40
2019-05-03T02:42:35.641Z,77.40
2019-05-03T02:45:06.059Z,77.40
2019-05-03T02:47:47.137Z,77.40
2019-05-03T02:50:19.172Z,77.50
2019-05-03T02:53:07.493Z,77.40
2019-05-03T02:55:36.513Z,78.20
2019-05-03T02:58:05.810Z,77.40
2019-05-03T03:00:56.929Z,77.40
2019-05-03T03:03:26.659Z,77.40
2019-05-03T03:05:56.700Z,77.40
2019-05-03T03:08:26.790Z,77.40
2019-05-03T03:10:58.171Z,77.30
2019-05-03T03:13:27.237Z,77.20
2019-05-03T03:15:56.363Z,77.10
2019-05-03T03:18:25.670Z,77.10
2019-05-03T03:20:55.353Z,77.00
2019-05-03T03:23:26.442Z,76.90
2019-05-03T03:25:56.079Z,76.90
2019-05-03T03:28:25.469Z,76.80
2019-05-03T03:31:17.351Z,77.60
2019-05-03T03:33:47.610Z,76.80
2019-05-03T03:36:37.837Z,76.80
2019-05-03T03:38:45.882Z,76.70
2019-05-03T03:41:16.307Z,76.70
2019-05-03T03:43:46.317Z,76.60
2019-05-03T03:46:16.018Z,76.60
2019-05-03T03:48:46.084Z,76.50
2019-05-03T03:51:15.586Z,76.50
2019-05-03T03:53:46.489Z,76.40
2019-05-03T03:56:16.159Z,76.30
2019-05-03T03:58:46.462Z,76.30
2019-05-03T04:01:15.796Z,76.20
2019-05-03T04:03:46.020Z,76.20
2019-05-03T04:06:15.526Z,76.20
2019-05-03T04:08:45.404Z,76.10
2019-05-03T04:11:15.619Z,76.90
2019-05-03T04:13:47.769Z,76.00
2019-05-03T04:16:28.377Z,76.10
2019-05-03T04:19:05.731Z,76.10
2019-05-03T04:21:35.899Z,76.10
2019-05-03T04:24:25.923Z,76.20
2019-05-03T04:27:15.658Z,76.10
2019-05-03T04:29:36.445Z,76.10
2019-05-03T04:32:06.496Z,76.10
2019-05-03T04:34:36.849Z,76.10
2019-05-03T04:37:05.982Z,76.10
2019-05-03T04:39:35.964Z,76.10
2019-05-03T04:42:06.667Z,76.20
2019-05-03T04:44:37.670Z,76.20
2019-05-03T04:47:07.286Z,76.20
2019-05-03T04:49:36.559Z,76.20
2019-05-03T04:52:06.013Z,76.20
2019-05-03T04:55:00.523Z,76.20
2019-05-03T04:57:39.887Z,76.10
2019-05-03T05:00:00.319Z,76.10
2019-05-03T05:02:29.371Z,76.10
2019-05-03T05:04:59.581Z,76.10
2019-05-03T05:07:28.599Z,76.10
2019-05-03T05:09:57.688Z,76.00
2019-05-03T05:12:26.755Z,76.00
2019-05-03T05:14:56.640Z,75.90
2019-05-03T05:17:45.886Z,76.00
2019-05-03T05:20:35.059Z,76.10
2019-05-03T05:23:04.628Z,76.00
2019-05-03T05:25:38.071Z,76.10
2019-05-03T05:28:22.486Z,75.90
2019-05-03T05:30:51.583Z,75.90
2019-05-03T05:33:20.743Z,75.80
2019-05-03T05:35:50.870Z,75.80
2019-05-03T05:38:19.912Z,75.60
2019-05-03T05:40:52.729Z,75.60
2019-05-03T05:43:36.787Z,75.50
2019-05-03T05:46:06.211Z,75.40
2019-05-03T05:48:40.434Z,75.20
2019-05-03T05:51:09.467Z,75.00
2019-05-03T05:53:38.535Z,75.00
2019-05-03T05:56:35.362Z,74.90
2019-05-03T05:59:29.596Z,74.90
2019-05-03T06:02:04.692Z,74.80
2019-05-03T06:04:34.789Z,74.70
2019-05-03T06:07:21.556Z,74.70
2019-05-03T06:10:16.694Z,74.60
2019-05-03T06:12:54.524Z,74.90
2019-05-03T06:15:36.483Z,74.60
2019-05-03T06:18:10.279Z,74.60
2019-05-03T06:20:50.858Z,74.40
2019-05-03T06:23:25.152Z,74.30
2019-05-03T06:25:54.601Z,74.30
2019-05-03T06:28:29.793Z,74.10
2019-05-03T06:31:08.646Z,73.90
2019-05-03T06:33:37.697Z,73.50
2019-05-03T06:36:06.851Z,73.20
2019-05-03T06:38:35.981Z,73.00
2019-05-03T06:41:05.121Z,72.60
2019-05-03T06:43:34.852Z,72.40
2019-05-03T06:46:05.359Z,72.10
2019-05-03T06:48:35.246Z,71.70
2019-05-03T06:51:08.679Z,71.40
2019-05-03T06:53:34.997Z,71.00
2019-05-03T06:56:04.553Z,70.60
2019-05-03T06:58:36.243Z,70.40
2019-05-03T07:01:25.143Z,70.00
2019-05-03T07:04:19.206Z,69.70
2019-05-03T07:07:19.550Z,70.10
2019-05-03T07:10:14.983Z,68.80
2019-05-03T07:12:59.590Z,69.10
2019-05-03T07:15:28.662Z,68.10
2019-05-03T07:17:57.676Z,67.90
2019-05-03T07:20:26.661Z,67.60
2019-05-03T07:22:56.085Z,67.40
2019-05-03T07:25:25.762Z,67.30
2019-05-03T07:27:55.711Z,67.10
2019-05-03T07:30:25.081Z,66.90
2019-05-03T07:33:01.398Z,66.60
2019-05-03T07:35:30.400Z,66.50
2019-05-03T07:38:00.802Z,66.20
2019-05-03T07:40:29.857Z,65.90
2019-05-03T07:42:58.905Z,65.60
2019-05-03T07:45:27.921Z,65.10
2019-05-03T07:47:56.916Z,64.70
2019-05-03T07:50:26.136Z,64.30
2019-05-03T07:52:55.806Z,64.00
2019-05-03T07:56:05.243Z,63.60
2019-05-03T07:58:35.115Z,62.80
2019-05-03T08:01:09.778Z,61.70
2019-05-03T08:03:37.702Z,61.50
2019-05-03T08:06:06.708Z,59.50
2019-05-03T08:08:35.751Z,58.20
2019-05-03T08:11:06.170Z,56.50
2019-05-03T08:13:35.655Z,54.60
2019-05-03T08:16:05.841Z,53.90
2019-05-03T08:18:35.548Z,53.30
2019-05-03T08:21:05.574Z,50.80
2019-05-03T08:23:35.379Z,47.90
2019-05-03T08:26:05.773Z,47.40
2019-05-03T08:28:35.158Z,46.90
2019-05-03T08:31:32.134Z,47.90
2019-05-03T08:34:10.175Z,48.70
2019-05-03T08:36:58.271Z,49.60
2019-05-03T08:39:27.425Z,50.30
2019-05-03T08:42:01.422Z,49.70
2019-05-03T08:44:30.410Z,50.00
2019-05-03T08:46:59.462Z,49.90
2019-05-03T08:49:28.507Z,46.90
2019-05-03T08:51:57.435Z,44.20
2019-05-03T08:54:26.456Z,42.00
2019-05-03T08:56:55.887Z,40.40
2019-05-03T08:59:29.781Z,39.90
2019-05-03T09:01:55.778Z,39.10
2019-05-03T09:04:36.096Z,38.10
2019-05-03T09:06:55.608Z,37.30
2019-05-03T09:09:39.864Z,36.90
2019-05-03T09:12:08.868Z,36.40
2019-05-03T09:14:43.954Z,36.00
2019-05-03T09:17:09.932Z,35.70
2019-05-03T09:19:38.885Z,35.30
2019-05-03T09:22:07.889Z,35.20
2019-05-03T09:24:36.886Z,34.90
2019-05-03T09:27:05.952Z,35.30
2019-05-03T09:29:43.095Z,34.50
2019-05-03T09:32:05.810Z,34.50
2019-05-03T09:34:35.213Z,34.40
2019-05-03T09:37:04.806Z,34.60
2019-05-03T09:39:35.551Z,34.80
2019-05-03T09:42:04.854Z,35.00
2019-05-03T09:44:35.009Z,35.20
2019-05-03T09:47:05.660Z,35.40
2019-05-03T09:49:35.001Z,35.70
2019-05-03T09:52:08.001Z,35.90
2019-05-03T09:54:46.665Z,36.30
2019-05-03T09:57:15.736Z,36.70
2019-05-03T09:59:56.481Z,36.90
2019-05-03T10:02:15.649Z,37.10
2019-05-03T10:04:44.781Z,37.20
2019-05-03T10:07:15.346Z,37.20
2019-05-03T10:09:46.296Z,37.40
2019-05-03T10:12:19.640Z,37.50
2019-05-03T10:14:48.683Z,37.70
2019-05-03T10:17:27.895Z,38.00
2019-05-03T10:19:56.944Z,38.00
2019-05-03T10:22:27.458Z,38.00
2019-05-03T10:24:56.600Z,37.90
2019-05-03T10:27:25.734Z,37.80
2019-05-03T10:30:09.058Z,38.00
2019-05-03T10:32:39.757Z,37.90
2019-05-03T10:35:10.699Z,37.80
2019-05-03T10:37:39.759Z,37.90
2019-05-03T10:40:09.992Z,37.80
2019-05-03T10:42:39.074Z,37.90
2019-05-03T10:45:08.263Z,38.00
2019-05-03T10:47:37.312Z,38.10
2019-05-03T10:50:06.586Z,38.10
2019-05-03T10:52:44.634Z,38.20
2019-05-03T10:55:15.745Z,38.30
2019-05-03T10:57:47.079Z,38.50
2019-05-03T11:00:42.598Z,38.60
2019-05-03T11:02:58.329Z,38.70
2019-05-03T11:05:27.337Z,38.80
2019-05-03T11:07:56.425Z,39.40
2019-05-03T11:10:25.451Z,38.90
2019-05-03T11:12:54.884Z,39.00
2019-05-03T11:15:25.938Z,39.10
2019-05-03T11:17:54.987Z,39.30
2019-05-03T11:20:34.604Z,39.40
2019-05-03T11:23:05.982Z,39.50
2019-05-03T11:25:35.516Z,39.70
2019-05-03T11:28:09.582Z,39.80
2019-05-03T11:30:51.621Z,39.90
2019-05-03T11:33:15.315Z,40.00
2019-05-03T11:35:49.030Z,40.10
2019-05-03T11:38:25.427Z,40.20
2019-05-03T11:40:56.035Z,40.30
2019-05-03T11:43:25.242Z,40.30
2019-05-03T11:45:55.422Z,40.30
2019-05-03T11:48:25.990Z,40.30
2019-05-03T11:50:54.954Z,40.40
2019-05-03T11:53:25.223Z,40.50
2019-05-03T11:55:55.240Z,40.50
2019-05-03T11:58:26.974Z,40.50
2019-05-03T12:01:19.714Z,40.50
2019-05-03T12:03:56.367Z,40.50
2019-05-03T12:06:25.426Z,40.50
2019-05-03T12:08:55.417Z,40.60
2019-05-03T12:11:25.024Z,40.80
2019-05-03T12:14:11.019Z,40.90
2019-05-03T12:19:20.062Z,41.10
2019-05-03T12:21:45.968Z,41.20
2019-05-03T12:24:16.151Z,41.10
2019-05-03T12:26:47.134Z,41.10
2019-05-03T12:29:16.195Z,41.00
2019-05-03T12:31:45.690Z,40.70
2019-05-03T12:34:15.949Z,40.70
2019-05-03T12:36:45.166Z,40.50
2019-05-03T12:39:24.362Z,40.40
2019-05-03T12:41:47.858Z,40.30
2019-05-03T12:44:15.602Z,40.20
2019-05-03T12:46:47.516Z,40.20
2019-05-03T12:49:16.585Z,40.80
2019-05-03T12:51:46.685Z,40.10
2019-05-03T12:54:15.694Z,40.10
2019-05-03T12:56:45.355Z,40.10
2019-05-03T12:59:27.134Z,40.10
2019-05-03T13:02:04.890Z,40.00
2019-05-03T13:04:35.922Z,40.40
2019-05-03T13:07:18.058Z,40.20
2019-05-03T13:09:47.113Z,40.40
2019-05-03T13:12:18.601Z,40.90
2019-05-03T13:14:47.669Z,41.10
2019-05-03T13:17:35.408Z,41.30
2019-05-03T13:20:08.884Z,41.50
2019-05-03T13:22:37.896Z,41.80
2019-05-03T13:25:07.766Z,42.00
2019-05-03T13:27:36.753Z,42.30
2019-05-03T13:30:06.217Z,42.60
2019-05-03T13:32:35.246Z,43.00
2019-05-03T13:35:05.867Z,43.30
2019-05-03T13:37:35.878Z,43.50
2019-05-03T13:40:05.605Z,43.70
2019-05-03T13:42:35.133Z,43.90
2019-05-03T13:45:04.898Z,44.20
2019-05-03T13:47:35.104Z,44.40
2019-05-03T13:50:05.042Z,44.60
2019-05-03T13:52:34.608Z,44.80
2019-05-03T13:55:05.431Z,45.20
2019-05-03T13:57:35.966Z,45.00
2019-05-03T14:00:05.893Z,45.10
2019-05-03T14:02:35.690Z,45.20
2019-05-03T14:05:05.627Z,45.40
2019-05-03T14:07:35.439Z,45.50
2019-05-03T14:10:05.009Z,45.50
2019-05-03T14:12:35.039Z,45.50
2019-05-03T14:15:05.680Z,45.30
2019-05-03T14:17:36.854Z,45.00
2019-05-03T14:20:17.539Z,45.00
2019-05-03T14:22:57.935Z,45.00
2019-05-03T14:25:26.946Z,45.10
2019-05-03T14:27:55.974Z,45.10
2019-05-03T14:30:25.381Z,45.40
2019-05-03T14:32:55.717Z,45.50
2019-05-03T14:35:25.146Z,45.50
2019-05-03T14:37:55.071Z,45.80
2019-05-03T14:40:25.171Z,46.10
2019-05-03T14:42:55.484Z,46.40
2019-05-03T14:45:25.553Z,46.70
2019-05-03T14:47:57.448Z,47.00
2019-05-03T14:50:25.562Z,47.20
2019-05-03T14:52:56.943Z,47.30
2019-05-03T14:55:45.262Z,47.50
2019-05-03T14:58:25.877Z,47.60
2019-05-03T15:01:04.782Z,47.90
2019-05-03T15:03:35.080Z,48.10
2019-05-03T15:06:05.158Z,48.30
2019-05-03T15:08:35.052Z,49.20
2019-05-03T15:11:05.297Z,48.70
2019-05-03T15:13:34.984Z,48.70
2019-05-03T15:16:05.245Z,48.80
2019-05-03T15:18:34.819Z,48.90
2019-05-03T15:21:05.523Z,48.90
2019-05-03T15:23:34.844Z,48.70
2019-05-03T15:26:05.249Z,48.70
2019-05-03T15:28:35.667Z,48.80
2019-05-03T15:31:04.824Z,48.90
2019-05-03T15:33:35.366Z,49.00
2019-05-03T15:36:05.729Z,49.20
2019-05-03T15:38:34.830Z,49.40
2019-05-03T15:41:05.382Z,49.80
2019-05-03T15:43:50.209Z,50.00
2019-05-03T15:46:35.419Z,50.30
2019-05-03T15:49:04.719Z,50.50
2019-05-03T15:51:33.752Z,51.40
2019-05-03T15:54:04.457Z,51.10
2019-05-03T15:56:35.174Z,51.40
2019-05-03T15:59:04.538Z,51.50
2019-05-03T16:01:35.375Z,51.60
2019-05-03T16:04:04.873Z,51.80
2019-05-03T16:06:35.502Z,52.00
2019-05-03T16:09:06.750Z,52.10
2019-05-03T16:11:37.705Z,52.30
2019-05-03T16:14:06.687Z,52.40
2019-05-03T16:16:37.219Z,52.40
2019-05-03T16:19:06.404Z,52.40
2019-05-03T16:21:36.830Z,52.40
2019-05-03T16:24:05.991Z,52.50
2019-05-03T16:26:36.857Z,52.70
2019-05-03T16:29:12.010Z,52.90
2019-05-03T16:32:02.245Z,53.10
2019-05-03T16:34:31.282Z,53.20
2019-05-03T16:37:00.519Z,53.10
2019-05-03T16:39:29.546Z,53.30
2019-05-03T16:41:58.583Z,53.50
2019-05-03T16:44:27.653Z,54.00
2019-05-03T16:46:56.785Z,54.50
2019-05-03T16:49:25.834Z,54.90
2019-05-03T16:51:54.931Z,55.10
2019-05-03T16:54:25.441Z,55.40
2019-05-03T16:56:54.961Z,55.70
2019-05-03T16:59:24.741Z,55.80
2019-05-03T17:01:55.190Z,56.10
2019-05-03T17:04:34.401Z,56.30
2019-05-03T17:07:22.064Z,56.60
2019-05-03T17:09:57.817Z,56.70
2019-05-03T17:12:28.678Z,56.90
2019-05-03T17:14:57.739Z,57.00
2019-05-03T17:17:28.266Z,57.20
2019-05-03T17:19:57.403Z,57.40
2019-05-03T17:22:26.409Z,57.50
2019-05-03T17:24:55.510Z,57.70
2019-05-03T17:27:25.049Z,57.80
2019-05-03T17:29:55.313Z,57.90
2019-05-03T17:32:35.121Z,58.10
2019-05-03T17:35:05.329Z,58.30
2019-05-03T17:37:34.742Z,58.60
2019-05-03T17:40:22.893Z,58.80
2019-05-03T17:43:20.158Z,59.00
2019-05-03T17:45:52.093Z,59.30
2019-05-03T17:48:21.181Z,59.60
2019-05-03T17:50:50.275Z,60.00
2019-05-03T17:53:41.423Z,60.20
2019-05-03T17:56:17.949Z,60.40
2019-05-03T17:59:06.076Z,60.80
2019-05-03T18:02:06.889Z,61.10
2019-05-03T18:04:55.007Z,61.60
2019-05-03T18:07:45.266Z,62.10
2019-05-03T18:10:15.173Z,62.30
2019-05-03T18:12:45.330Z,62.30
2019-05-03T18:15:14.737Z,62.50
2019-05-03T18:17:47.063Z,62.80
2019-05-03T18:20:16.123Z,63.00
2019-05-03T18:22:45.141Z,63.20
2019-05-03T18:25:14.289Z,63.50
2019-05-03T18:27:44.614Z,63.90
2019-05-03T18:30:13.709Z,64.10
2019-05-03T18:32:42.723Z,64.50
2019-05-03T18:35:11.773Z,64.90
2019-05-03T18:37:40.921Z,65.50
2019-05-03T18:40:10.087Z,65.90
2019-05-03T18:42:44.844Z,66.30
2019-05-03T18:45:26.020Z,66.50
2019-05-03T18:47:58.345Z,66.90
2019-05-03T18:50:27.441Z,67.00
2019-05-03T18:52:56.602Z,67.10
2019-05-03T18:55:25.733Z,67.40
2019-05-03T18:58:14.856Z,67.60
2019-05-03T19:00:44.145Z,67.70
2019-05-03T19:03:13.387Z,67.80
2019-05-03T19:05:45.329Z,68.00
2019-05-03T19:08:27.650Z,68.20
2019-05-03T19:11:15.116Z,68.30
2019-05-03T19:13:50.850Z,68.50
2019-05-03T19:16:38.986Z,68.70
2019-05-03T19:19:09.065Z,68.90
2019-05-03T19:21:38.106Z,69.00
2019-05-03T19:24:07.198Z,69.30
2019-05-03T19:26:36.211Z,69.50
2019-05-03T19:29:05.246Z,69.70
2019-05-03T19:31:35.595Z,69.90
2019-05-03T19:34:06.071Z,70.10
2019-05-03T19:36:37.207Z,70.30
2019-05-03T19:39:06.246Z,70.40
2019-05-03T19:41:35.470Z,70.60
2019-05-03T19:44:04.480Z,70.80
2019-05-03T19:46:35.113Z,71.00
2019-05-03T19:49:05.068Z,71.20
2019-05-03T19:51:34.425Z,71.40
2019-05-03T19:54:05.420Z,71.60
2019-05-03T19:56:34.536Z,71.80
2019-05-03T19:59:07.549Z,72.00
2019-05-03T20:02:01.861Z,72.30
2019-05-03T20:04:57.690Z,72.50
2019-05-03T20:07:34.541Z,72.60
2019-05-03T20:10:05.176Z,72.80
2019-05-03T20:12:35.349Z,72.90
2019-05-03T20:15:05.306Z,73.10
2019-05-03T20:17:34.648Z,73.30
2019-05-03T20:20:04.752Z,73.50
2019-05-03T20:22:35.134Z,73.70
2019-05-03T20:25:04.713Z,73.80
2019-05-03T20:27:35.190Z,73.90
2019-05-03T20:30:05.769Z,74.10
2019-05-03T20:32:34.857Z,74.10
2019-05-03T20:35:12.990Z,74.30
2019-05-03T20:37:34.703Z,74.40
2019-05-03T20:40:04.977Z,74.60
2019-05-03T20:43:11.220Z,74.70
2019-05-03T20:45:59.742Z,74.90
2019-05-03T20:48:28.761Z,75.00
2019-05-03T20:50:57.838Z,75.10
2019-05-03T20:53:26.838Z,75.20
2019-05-03T20:55:55.901Z,75.30
2019-05-03T20:58:25.227Z,75.30
2019-05-03T21:00:54.579Z,75.40
2019-05-03T21:03:24.752Z,75.50
2019-05-03T21:05:55.240Z,75.50
2019-05-03T21:08:25.464Z,75.50
2019-05-03T21:10:55.198Z,75.50
2019-05-03T21:13:44.978Z,75.60
2019-05-03T21:16:38.887Z,75.60
2019-05-03T21:19:31.600Z,75.70
2019-05-03T21:22:05.527Z,75.80
2019-05-03T21:24:49.397Z,75.70
2019-05-03T21:27:37.706Z,75.70
2019-05-03T21:30:06.942Z,76.50
2019-05-03T21:32:36.008Z,75.70
2019-05-03T21:35:05.734Z,75.80
2019-05-03T21:37:34.957Z,75.80
2019-05-03T21:40:05.128Z,75.80
2019-05-03T21:42:35.069Z,75.70
2019-05-03T21:45:04.777Z,75.70
2019-05-03T21:47:48.778Z,75.70
2019-05-03T21:50:18.942Z,75.60
2019-05-03T21:52:47.984Z,75.60
2019-05-03T21:55:17.070Z,75.60
2019-05-03T21:57:46.890Z,75.60
2019-05-03T22:00:16.647Z,75.60
2019-05-03T22:02:45.721Z,75.60
2019-05-03T22:05:16.555Z,75.50
2019-05-03T22:07:45.627Z,75.60
2019-05-03T22:10:15.140Z,75.70
2019-05-03T22:12:44.299Z,75.80
2019-05-03T22:15:36.734Z,75.60
2019-05-03T22:18:20.081Z,75.70
2019-05-03T22:20:55.297Z,75.70
2019-05-03T22:23:55.732Z,75.70
2019-05-03T22:26:55.708Z,75.80
2019-05-03T22:29:25.543Z,75.80
2019-05-03T22:31:54.943Z,75.90
2019-05-03T22:34:25.722Z,75.90
2019-05-03T22:36:54.997Z,75.90
2019-05-03T22:39:45.202Z,76.00
2019-05-03T22:42:14.818Z,76.00
2019-05-03T22:44:44.819Z,76.10
2019-05-03T22:47:14.754Z,76.20
2019-05-03T22:49:45.616Z,76.30
2019-05-03T22:52:15.382Z,76.50
2019-05-03T22:54:45.163Z,76.60
2019-05-03T22:57:15.283Z,76.70
2019-05-03T22:59:44.925Z,76.70
2019-05-03T23:02:16.864Z,77.00
2019-05-03T23:04:44.983Z,77.10
2019-05-03T23:07:14.824Z,77.20
2019-05-03T23:09:52.105Z,77.30
2019-05-03T23:12:21.174Z,77.40
2019-05-03T23:14:50.235Z,77.60
2019-05-03T23:17:19.375Z,77.70
2019-05-03T23:19:51.358Z,77.90
2019-05-03T23:22:24.629Z,77.90
2019-05-03T23:24:54.827Z,78.10
2019-05-03T23:27:25.214Z,78.10
2019-05-03T23:29:54.602Z,78.20
2019-05-03T23:32:24.542Z,78.30
2019-05-03T23:34:54.398Z,78.30
2019-05-03T23:37:23.627Z,78.40
2019-05-03T23:39:52.677Z,78.60
2019-05-03T23:42:21.702Z,78.60
2019-05-03T23:44:50.710Z,78.50
2019-05-03T23:47:26.730Z,78.60
2019-05-03T23:49:55.767Z,78.70
2019-05-03T23:52:35.473Z,78.70
2019-05-03T23:55:09.046Z,78.80
2019-05-03T23:57:38.982Z,78.80
